Stevens Pass
Stevens Pass - WSDOT Schmidt Haus
Latest observation 08/31 18:00 PDT
| Time (PDT) | Temp °F 3950' | RH % 3950' | Pcp1 in 3950' | PcpSum in 3950' | 24Sno in 3950' | SnoHt in 3950' | Pres millibar 3950' |
|---|---|---|---|---|---|---|---|
| 08/31 18:00 | 68 | 41 | 0.00 | 0.67 | 132.2 | 5.3 | 1013 |
| 08/31 17:00 | 69 | 40 | 0.00 | 0.67 | 140.0 | 5.2 | 1013 |
| 08/31 16:00 | 71 | 39 | 0.00 | 0.67 | 139.5 | 5.1 | 1013 |
| 08/31 15:00 | 70 | 40 | 0.00 | 0.67 | 145.9 | 4.9 | 1014 |
| 08/31 14:00 | 69 | 43 | 0.00 | 0.67 | 152.9 | 5.1 | 1014 |
| 08/31 13:00 | 66 | 49 | 0.00 | 0.67 | 147.1 | 5.5 | 1015 |
| 08/31 12:00 | 63 | 57 | 0.00 | 0.67 | 155.3 | 5.2 | 1015 |
| 08/31 11:00 | 60 | 62 | 0.00 | 0.67 | 149.6 | 6.2 | 1016 |
| 08/31 10:00 | 55 | 72 | 0.00 | 0.67 | 116.2 | 6.4 | 1016 |
| 08/31 09:00 | 49 | 89 | 0.00 | 0.67 | 25.6 | 6.7 | 1016 |
| 08/31 08:00 | 46 | 94 | 0.00 | 0.67 | 21.9 | 7.2 | 1016 |
| 08/31 07:00 | 45 | 94 | 0.00 | 0.67 | 24.4 | 6.9 | 1016 |
| 08/31 06:00 | 45 | 94 | 0.00 | 0.67 | 22.3 | 6.9 | 1016 |
| 08/31 05:00 | 45 | 94 | 0.00 | 0.67 | 20.4 | 6.8 | 1016 |
| 08/31 04:00 | 45 | 94 | 0.00 | 0.67 | 20.2 | 6.7 | 1016 |
| 08/31 03:00 | 45 | 94 | 0.00 | 0.67 | 22.1 | 6.9 | 1016 |
| 08/31 02:00 | 44 | 91 | 0.00 | 0.67 | 19.4 | 6.5 | 1017 |
| 08/31 01:00 | 45 | 90 | 0.00 | 0.67 | 27.6 | 6.8 | 1017 |
| 08/31 00:00 | 46 | 88 | 0.00 | 0.67 | 41.0 | 6.7 | 1017 |
| 08/30 23:00 | 48 | 90 | 0.00 | 0.67 | 59.2 | 6.4 | 1018 |
| 08/30 22:00 | 49 | 89 | 0.00 | 0.67 | 86.1 | 6.2 | 1018 |
| 08/30 21:00 | 49 | 88 | 0.00 | 0.67 | 102.5 | 6.0 | 1019 |
| 08/30 20:00 | 50 | 86 | 0.00 | 0.67 | 121.3 | 6.3 | 1018 |
| 08/30 19:00 | 51 | 84 | 0.00 | 0.67 | 134.1 | 6.1 | 1019 |
| 08/30 18:00 | 51 | 81 | 0.00 | 0.67 | 137.3 | 6.1 | 1019 |
| 08/30 17:00 | 52 | 78 | 0.00 | 0.67 | 138.0 | 6.1 | 1019 |
| 08/30 16:00 | 52 | 80 | 0.00 | 0.67 | 142.9 | 6.1 | 1019 |
| 08/30 15:00 | 53 | 76 | 0.00 | 0.67 | 146.2 | 6.0 | 1019 |
| 08/30 14:00 | 51 | 81 | 0.00 | 0.67 | 136.7 | 6.1 | 1019 |
| 08/30 13:00 | 50 | 82 | 0.00 | 0.67 | 137.6 | 6.4 | 1019 |
| 08/30 12:00 | 48 | 87 | 0.00 | 0.67 | 127.6 | 6.7 | 1019 |
| 08/30 11:00 | 46 | 92 | 0.00 | 0.67 | 108.9 | 6.0 | 1019 |
| 08/30 10:00 | 46 | 94 | 0.00 | 0.67 | 84.7 | 6.3 | 1019 |
| 08/30 09:00 | 45 | 96 | 0.00 | 0.67 | 38.1 | 6.6 | 1019 |
| 08/30 08:00 | 45 | 96 | 0.00 | 0.67 | 26.0 | 7.0 | 1019 |
| 08/30 07:00 | 45 | 96 | 0.00 | 0.67 | 33.4 | 7.0 | 1018 |
| 08/30 06:00 | 45 | 95 | 0.00 | 0.67 | 29.3 | 6.7 | 1018 |
| 08/30 05:00 | 45 | 95 | 0.00 | 0.67 | 31.2 | 6.6 | 1018 |
| 08/30 04:00 | 44 | 95 | 0.00 | 0.67 | 23.3 | 6.6 | 1018 |
| 08/30 03:00 | 45 | 95 | 0.00 | 0.67 | 24.1 | 6.6 | 1018 |
| 08/30 02:00 | 45 | 95 | 0.00 | 0.67 | 26.6 | 6.6 | 1018 |
| 08/30 01:00 | 45 | 95 | 0.00 | 0.67 | 26.3 | 6.5 | 1018 |
| 08/30 00:00 | 46 | 94 | 0.00 | 0.67 | 29.1 | 6.4 | 1018 |
| 08/29 23:00 | 46 | 95 | 0.00 | 0.67 | 25.2 | 6.4 | 1018 |
| 08/29 22:00 | 46 | 94 | 0.00 | 0.67 | 27.1 | 6.7 | 1019 |
| 08/29 21:00 | 46 | 93 | 0.00 | 0.67 | 37.5 | 6.5 | 1018 |
| 08/29 20:00 | 46 | 92 | 0.00 | 0.67 | 63.4 | 6.6 | 1018 |
| 08/29 19:00 | 47 | 91 | 0.00 | 0.67 | 114.6 | 6.8 | 1018 |
| 08/29 18:00 | 47 | 91 | 0.00 | 0.67 | 123.7 | 6.9 | 1018 |
| 08/29 17:00 | 47 | 88 | 0.00 | 0.67 | 128.6 | 7.0 | 1018 |
| 08/29 16:00 | 47 | 89 | 0.00 | 0.67 | 116.8 | 6.9 | 1017 |
| 08/29 15:00 | 47 | 92 | 0.01 | 0.67 | 103.8 | 6.9 | 1017 |
| 08/29 14:00 | 46 | 93 | 0.03 | 0.66 | 77.1 | 7.2 | 1017 |
| 08/29 13:00 | 47 | 93 | 0.05 | 0.63 | 105.8 | 7.0 | 1016 |
| 08/29 12:00 | 47 | 93 | 0.01 | 0.58 | 87.5 | 7.0 | 1016 |
| 08/29 11:00 | 45 | 93 | 0.01 | 0.57 | 67.7 | 7.1 | 1015 |
| 08/29 10:00 | 45 | 93 | 0.01 | 0.56 | 44.5 | 7.0 | 1015 |
| 08/29 09:00 | 45 | 95 | 0.01 | 0.55 | 39.5 | 7.1 | 1015 |
| 08/29 08:00 | 45 | 95 | 0.00 | 0.54 | 43.3 | 6.8 | 1014 |
| 08/29 07:00 | 45 | 96 | 0.00 | 0.54 | 61.2 | 7.0 | 1014 |
| 08/29 06:00 | 46 | 96 | 0.01 | 0.54 | 67.5 | 6.8 | 1014 |
| 08/29 05:00 | 47 | 95 | 0.00 | 0.53 | 69.2 | 7.0 | 1014 |
| 08/29 04:00 | 47 | 94 | 0.02 | 0.53 | 44.8 | 7.0 | 1015 |
| 08/29 03:00 | 48 | 94 | 0.01 | 0.51 | 32.8 | 7.2 | 1015 |
| 08/29 02:00 | 49 | 94 | 0.00 | 0.50 | 39.8 | 6.4 | 1015 |
| 08/29 01:00 | 49 | 89 | 0.00 | 0.50 | 54.7 | 6.2 | 1015 |
| 08/29 00:00 | 50 | 89 | 0.00 | 0.50 | 76.0 | 6.4 | 1015 |
| 08/28 23:00 | 50 | 88 | 0.00 | 0.50 | 96.2 | 6.1 | 1016 |
| 08/28 22:00 | 50 | 84 | 0.00 | 0.50 | 111.0 | 6.4 | 1016 |
| 08/28 21:00 | 52 | 80 | 0.00 | 0.50 | 124.0 | 6.3 | 1016 |
| 08/28 20:00 | 54 | 76 | 0.00 | 0.50 | 129.7 | 6.2 | 1016 |
| 08/28 19:00 | 56 | 71 | 0.00 | 0.50 | 133.2 | 5.9 | 1016 |
| 08/28 18:00 | 59 | 65 | 0.00 | 0.50 | 144.5 | 6.0 | 1016 |
| 08/28 17:00 | 61 | 57 | 0.00 | 0.50 | 151.8 | 5.7 | 1016 |
| 08/28 16:00 | 63 | 55 | 0.00 | 0.50 | 156.5 | 5.4 | 1016 |
| 08/28 15:00 | 62 | 56 | 0.00 | 0.50 | 153.5 | 5.1 | 1017 |
| 08/28 14:00 | 62 | 57 | 0.00 | 0.50 | 152.7 | 5.5 | 1017 |
| 08/28 13:00 | 60 | 60 | 0.00 | 0.50 | 140.8 | 5.6 | 1017 |
| 08/28 12:00 | 58 | 68 | 0.00 | 0.50 | 153.5 | 5.6 | 1017 |
| 08/28 11:00 | 54 | 76 | 0.00 | 0.50 | 144.4 | 5.4 | 1018 |
| 08/28 10:00 | 52 | 86 | 0.00 | 0.50 | 134.0 | 5.9 | 1018 |
| 08/28 09:00 | 50 | 90 | 0.00 | 0.50 | 112.9 | 6.0 | 1018 |
| 08/28 08:00 | 49 | 93 | 0.00 | 0.50 | 71.3 | 6.0 | 1018 |
| 08/28 07:00 | 50 | 93 | 0.00 | 0.50 | 52.3 | 5.9 | 1018 |
| 08/28 06:00 | 50 | 92 | 0.00 | 0.50 | 61.3 | 6.2 | 1018 |
| 08/28 05:00 | 50 | 88 | 0.00 | 0.50 | 71.7 | 6.0 | 1018 |
| 08/28 04:00 | 50 | 89 | 0.00 | 0.50 | 81.6 | 6.2 | 1018 |
| 08/28 03:00 | 50 | 88 | 0.00 | 0.50 | 89.2 | 6.1 | 1018 |
| 08/28 02:00 | 51 | 86 | 0.00 | 0.50 | 119.9 | 6.0 | 1019 |
| 08/28 01:00 | 52 | 86 | 0.00 | 0.50 | 129.8 | 6.2 | 1019 |
| 08/28 00:00 | 53 | 85 | 0.00 | 0.50 | 130.6 | 6.0 | 1018 |
| 08/27 23:00 | 53 | 83 | 0.00 | 0.50 | 133.1 | 6.0 | 1019 |
| 08/27 22:00 | 54 | 80 | 0.00 | 0.50 | 132.3 | 5.7 | 1019 |
| 08/27 21:00 | 55 | 76 | 0.00 | 0.50 | 134.0 | 5.6 | 1018 |
| 08/27 20:00 | 55 | 75 | 0.00 | 0.50 | 130.1 | 5.8 | 1018 |
| 08/27 19:00 | 56 | 71 | 0.00 | 0.50 | 141.0 | 5.9 | 1018 |
| 08/27 18:00 | 57 | 68 | 0.00 | 0.50 | 134.2 | 5.4 | 1018 |
| 08/27 17:00 | 58 | 68 | 0.00 | 0.50 | 147.2 | 5.9 | 1018 |
| 08/27 16:00 | 58 | 67 | 0.00 | 0.50 | 143.8 | 5.7 | 1019 |
| 08/27 15:00 | 58 | 67 | 0.00 | 0.50 | 149.9 | 5.7 | 1019 |
| 08/27 14:00 | 65 | 51 | 0.00 | 0.50 | 156.4 | 4.6 | 1018 |
| 08/27 13:00 | 63 | 50 | 0.00 | 0.50 | 148.6 | 5.2 | 1018 |
| 08/27 12:00 | 60 | 53 | 0.00 | 0.50 | 151.5 | 5.3 | 1018 |
| 08/27 11:00 | 57 | 66 | 0.00 | 0.50 | 147.7 | 5.3 | 1018 |
| 08/27 10:00 | 54 | 78 | 0.00 | 0.50 | 144.3 | 5.6 | 1018 |
| 08/27 09:00 | 55 | 77 | 0.00 | 0.50 | 140.6 | 5.7 | 1017 |
| 08/27 08:00 | 52 | 86 | 0.00 | 0.50 | 120.1 | 6.3 | 1018 |
| 08/27 07:00 | 51 | 86 | 0.00 | 0.50 | 109.8 | 6.1 | 1017 |
| 08/27 06:00 | 52 | 85 | 0.00 | 0.50 | 103.6 | 5.8 | 1017 |
| 08/27 05:00 | 51 | 86 | 0.00 | 0.50 | 89.2 | 6.0 | 1017 |
| 08/27 04:00 | 50 | 84 | 0.00 | 0.50 | 78.9 | 6.0 | 1017 |
| 08/27 03:00 | 51 | 84 | 0.00 | 0.50 | 86.7 | 6.1 | 1017 |
| 08/27 02:00 | 51 | 82 | 0.00 | 0.50 | 105.4 | 5.8 | 1017 |
| 08/27 01:00 | 52 | 82 | 0.00 | 0.50 | 109.6 | 5.9 | 1018 |
| 08/27 00:00 | 52 | 80 | 0.00 | 0.50 | 114.2 | 6.0 | 1018 |
| 08/26 23:00 | 53 | 78 | 0.00 | 0.50 | 120.6 | 5.5 | 1018 |
| 08/26 22:00 | 55 | 76 | 0.00 | 0.50 | 125.5 | 6.0 | 1018 |
| 08/26 21:00 | 57 | 70 | 0.00 | 0.50 | 125.3 | 5.8 | 1018 |
| 08/26 20:00 | 61 | 62 | 0.00 | 0.50 | 124.7 | 5.3 | 1018 |
| 08/26 19:00 | 65 | 54 | 0.00 | 0.50 | 135.7 | 5.0 | 1018 |
| 08/26 18:00 | 68 | 45 | 0.00 | 0.50 | 133.6 | 5.1 | 1018 |
| 08/26 17:00 | 69 | 38 | 0.00 | 0.50 | 138.2 | -7999.0 | 1018 |
| 08/26 16:00 | 71 | 39 | 0.00 | 0.50 | 138.5 | 4.8 | 1018 |
| 08/26 15:00 | 71 | 46 | 0.00 | 0.50 | 149.0 | 4.8 | 1018 |
| 08/26 14:00 | 72 | 52 | 0.00 | 0.50 | 154.5 | 5.0 | 1018 |
| 08/26 13:00 | 71 | 53 | 0.00 | 0.50 | 151.3 | 4.8 | 1018 |
| 08/26 12:00 | 67 | 62 | 0.00 | 0.50 | 155.7 | 4.9 | 1018 |
| 08/26 11:00 | 65 | 65 | 0.00 | 0.50 | 154.3 | 5.1 | 1018 |
| 08/26 10:00 | 60 | 79 | 0.00 | 0.50 | 144.2 | 5.6 | 1018 |
| 08/26 09:00 | 55 | 85 | 0.00 | 0.50 | 98.1 | 5.8 | 1018 |
| 08/26 08:00 | 52 | 85 | 0.00 | 0.50 | 76.0 | 6.1 | 1018 |
| 08/26 07:00 | 51 | 83 | 0.00 | 0.50 | 72.6 | 5.9 | 1018 |
| 08/26 06:00 | 52 | 81 | 0.00 | 0.50 | 88.9 | 5.3 | 1018 |
| 08/26 05:00 | 52 | 78 | 0.00 | 0.50 | 115.1 | 5.9 | 1018 |
| 08/26 04:00 | 52 | 75 | 0.00 | 0.50 | 118.9 | 5.9 | 1019 |
| 08/26 03:00 | 53 | 73 | 0.00 | 0.50 | 107.9 | 5.9 | 1019 |
| 08/26 02:00 | 54 | 82 | 0.00 | 0.50 | 88.1 | 5.7 | 1019 |
| 08/26 01:00 | 55 | 79 | 0.00 | 0.50 | 112.0 | 5.7 | 1020 |
| 08/26 00:00 | 57 | 75 | 0.00 | 0.50 | 123.3 | 5.6 | 1019 |
| 08/25 23:00 | 59 | 73 | 0.00 | 0.50 | 126.6 | 5.7 | 1020 |
| 08/25 22:00 | 60 | 73 | 0.00 | 0.50 | 128.8 | 5.8 | 1020 |
| 08/25 21:00 | 63 | 67 | 0.00 | 0.50 | 133.2 | 5.5 | 1020 |
| 08/25 20:00 | 67 | 59 | 0.00 | 0.50 | 135.5 | 5.1 | 1020 |
| 08/25 19:00 | 71 | 54 | 0.00 | 0.50 | 136.9 | 5.1 | 1019 |
| 08/25 18:00 | 73 | 51 | 0.00 | 0.50 | 140.3 | 4.8 | 1019 |
| 08/25 17:00 | 76 | 42 | 0.00 | 0.50 | 136.4 | 4.6 | 1019 |
| 08/25 16:00 | 81 | 25 | 0.00 | 0.50 | 121.5 | 4.2 | 1018 |
| 08/25 15:00 | 79 | 28 | 0.00 | 0.50 | 135.8 | 4.6 | 1019 |
| 08/25 14:00 | 81 | 28 | 0.00 | 0.50 | 129.3 | 4.4 | 1019 |
| 08/25 13:00 | 81 | 28 | 0.00 | 0.50 | 133.3 | 4.6 | 1019 |
| 08/25 12:00 | 76 | 33 | 0.00 | 0.50 | 131.0 | 4.7 | 1019 |
| 08/25 11:00 | 72 | 37 | 0.00 | 0.50 | 137.5 | 5.2 | 1020 |
| 08/25 10:00 | 66 | 49 | 0.00 | 0.50 | 143.7 | 5.2 | 1020 |
| 08/25 09:00 | 59 | 65 | 0.00 | 0.50 | 133.9 | 5.7 | 1020 |
| 08/25 08:00 | 56 | 67 | 0.00 | 0.50 | 128.9 | 6.0 | 1020 |
| 08/25 07:00 | 55 | 65 | 0.00 | 0.50 | 129.4 | 5.8 | 1020 |
| 08/25 06:00 | 56 | 64 | 0.00 | 0.50 | 125.0 | 5.9 | 1019 |
| 08/25 05:00 | 55 | 65 | 0.00 | 0.50 | 128.7 | 5.6 | 1019 |
| 08/25 04:00 | 56 | 63 | 0.00 | 0.50 | 132.1 | 5.9 | 1019 |
| 08/25 03:00 | 57 | 62 | 0.00 | 0.50 | 128.3 | 5.8 | 1019 |
| 08/25 02:00 | 58 | 60 | 0.00 | 0.50 | 129.1 | 5.6 | 1019 |
| 08/25 01:00 | 58 | 60 | 0.00 | 0.50 | 127.0 | 5.8 | 1020 |
| 08/25 00:00 | 59 | 60 | 0.00 | 0.50 | 128.9 | 5.7 | 1020 |
| 08/24 23:00 | 59 | 60 | 0.00 | 0.50 | 125.5 | 5.7 | 1020 |
| 08/24 22:00 | 61 | 57 | 0.00 | 0.50 | 126.8 | 5.6 | 1020 |
| 08/24 21:00 | 63 | 54 | 0.00 | 0.50 | 121.2 | 5.3 | 1019 |
| 08/24 20:00 | 68 | 47 | 0.00 | 0.50 | 129.3 | 4.9 | 1019 |
| 08/24 19:00 | 72 | 34 | 0.00 | 0.50 | 122.1 | 4.9 | 1019 |
| 08/24 18:00 | 74 | 33 | 0.00 | 0.50 | 121.6 | 5.4 | 1019 |
| 08/24 17:00 | 74 | 34 | 0.00 | 0.50 | 127.0 | 4.8 | 1019 |
| 08/24 16:00 | 76 | 33 | 0.00 | 0.50 | 128.0 | 4.7 | 1019 |
| 08/24 15:00 | 76 | 34 | 0.00 | 0.50 | 130.0 | 4.8 | 1019 |
| 08/24 14:00 | 75 | 39 | 0.00 | 0.50 | 138.9 | 4.8 | 1020 |
| 08/24 13:00 | 72 | 42 | 0.00 | 0.50 | 141.8 | 4.8 | 1020 |
| 08/24 12:00 | 68 | 49 | 0.00 | 0.50 | 151.0 | 5.1 | 1021 |
| 08/24 11:00 | 63 | 59 | 0.00 | 0.50 | 150.3 | 5.9 | 1021 |
| 08/24 10:00 | 58 | 74 | 0.00 | 0.50 | 121.7 | 6.4 | 1021 |
| 08/24 09:00 | 51 | 89 | 0.00 | 0.50 | 29.8 | 6.4 | 1021 |
| 08/24 08:00 | 49 | 92 | 0.00 | 0.50 | 29.3 | 6.8 | 1021 |
| 08/24 07:00 | 48 | 92 | 0.00 | 0.50 | 41.2 | 6.9 | 1021 |
| 08/24 06:00 | 47 | 93 | 0.00 | 0.50 | 47.9 | 7.0 | 1020 |
| 08/24 05:00 | 47 | 93 | 0.00 | 0.50 | 52.9 | 7.2 | 1020 |
| 08/24 04:00 | 47 | 93 | 0.00 | 0.50 | 49.0 | 6.8 | 1020 |
| 08/24 03:00 | 47 | 93 | 0.00 | 0.50 | 54.4 | 7.0 | 1020 |
| 08/24 02:00 | 46 | 92 | 0.00 | 0.50 | 37.8 | 6.8 | 1020 |
| 08/24 01:00 | 47 | 93 | 0.00 | 0.50 | 43.5 | 6.7 | 1020 |
| 08/24 00:00 | 47 | 92 | 0.00 | 0.50 | 43.6 | 6.8 | 1021 |
| 08/23 23:00 | 48 | 92 | 0.00 | 0.50 | 48.4 | 6.7 | 1021 |
| 08/23 22:00 | 48 | 91 | 0.00 | 0.50 | 35.2 | 6.6 | 1021 |
| 08/23 21:00 | 50 | 89 | 0.00 | 0.50 | 46.2 | 6.5 | 1021 |
| 08/23 20:00 | 52 | 88 | 0.00 | 0.50 | 84.5 | 6.3 | 1021 |
| 08/23 19:00 | 54 | 86 | 0.00 | 0.50 | 137.1 | 6.0 | 1021 |
| 08/23 18:00 | 55 | 82 | 0.00 | 0.50 | 139.1 | 5.9 | 1021 |
| 08/23 17:00 | 55 | 84 | 0.00 | 0.50 | 143.5 | 6.3 | 1021 |
| 08/23 16:00 | 54 | 84 | 0.00 | 0.50 | 141.3 | 5.9 | 1022 |
| 08/23 15:00 | 54 | 87 | 0.00 | 0.50 | 137.8 | 6.2 | 1022 |
| 08/23 14:00 | 53 | 87 | 0.00 | 0.50 | 136.7 | 6.0 | 1021 |
| 08/23 13:00 | 53 | 88 | 0.00 | 0.50 | 133.6 | 6.5 | 1021 |
| 08/23 12:00 | 52 | 93 | 0.01 | 0.50 | 96.4 | 6.8 | 1021 |
| 08/23 11:00 | 51 | 92 | 0.01 | 0.49 | 82.7 | 6.6 | 1021 |
| 08/23 10:00 | 51 | 90 | 0.00 | 0.48 | 94.0 | 7.1 | 1020 |
| 08/23 09:00 | 51 | 92 | 0.00 | 0.48 | 47.2 | 7.3 | 1020 |
| 08/23 08:00 | 50 | 93 | 0.00 | 0.48 | 34.7 | 7.0 | 1019 |
| 08/23 07:00 | 50 | 93 | 0.00 | 0.48 | 31.1 | 7.2 | 1019 |
| 08/23 06:00 | 50 | 94 | 0.00 | 0.48 | 28.3 | 7.3 | 1019 |
| 08/23 05:00 | 50 | 94 | 0.00 | 0.48 | 28.7 | 7.2 | 1018 |
| 08/23 04:00 | 51 | 94 | 0.00 | 0.48 | 29.2 | 8.3 | 1018 |
| 08/23 03:00 | 51 | 93 | 0.00 | 0.48 | 38.1 | 7.5 | 1018 |
| 08/23 02:00 | 52 | 92 | 0.00 | 0.48 | 53.8 | 7.0 | 1018 |
| 08/23 01:00 | 53 | 92 | 0.00 | 0.48 | 49.3 | 7.2 | 1018 |
| 08/23 00:00 | 54 | 92 | 0.00 | 0.48 | 50.5 | 7.4 | 1018 |
| 08/22 23:00 | 54 | 91 | 0.00 | 0.48 | 54.7 | 7.0 | 1018 |
| 08/22 22:00 | 54 | 90 | 0.00 | 0.48 | 53.6 | 6.9 | 1018 |
| 08/22 21:00 | 54 | 93 | 0.00 | 0.48 | 38.1 | 6.7 | 1018 |
| 08/22 20:00 | 56 | 92 | 0.00 | 0.48 | 44.0 | 7.1 | 1018 |
| 08/22 19:00 | 58 | 92 | 0.00 | 0.48 | 67.5 | 6.8 | 1017 |
| 08/22 18:00 | 59 | 92 | 0.00 | 0.48 | 144.1 | 6.1 | 1018 |
| 08/22 17:00 | 60 | 90 | 0.00 | 0.48 | 155.1 | 6.5 | 1018 |
| 08/22 16:00 | 60 | 93 | 0.00 | 0.48 | 152.1 | 5.6 | 1018 |
| 08/22 15:00 | 56 | 97 | 0.00 | 0.48 | 56.0 | 7.4 | 1018 |
| 08/22 14:00 | 56 | 96 | 0.00 | 0.48 | 61.4 | 7.0 | 1018 |
| 08/22 13:00 | 57 | 97 | 0.00 | 0.48 | 62.8 | 6.8 | 1018 |
| 08/22 12:00 | 57 | 96 | 0.00 | 0.48 | 57.5 | 7.9 | 1018 |
| 08/22 11:00 | 56 | 96 | 0.01 | 0.48 | 86.3 | 6.8 | 1018 |
| 08/22 10:00 | 56 | 96 | 0.00 | 0.47 | 43.4 | 6.8 | 1018 |
| 08/22 09:00 | 56 | 95 | 0.03 | 0.47 | 47.0 | 7.2 | 1018 |
| 08/22 08:00 | 57 | 94 | 0.01 | 0.44 | 46.9 | 6.5 | 1017 |
| 08/22 07:00 | 57 | 91 | 0.00 | 0.43 | 63.1 | 7.0 | 1017 |
| 08/22 06:00 | 56 | 72 | 0.00 | 0.43 | 122.8 | 6.5 | 1017 |
| 08/22 05:00 | 57 | 67 | 0.00 | 0.43 | 119.8 | 6.5 | 1017 |
| 08/22 04:00 | 57 | 76 | 0.00 | 0.43 | 95.4 | 6.4 | 1018 |
| 08/22 03:00 | 60 | 86 | 0.00 | 0.43 | 61.3 | 6.1 | 1018 |
| 08/22 02:00 | 60 | 87 | 0.00 | 0.43 | 70.1 | 6.2 | 1019 |
| 08/22 01:00 | 60 | 85 | 0.00 | 0.43 | 80.8 | 6.0 | 1019 |
| 08/22 00:00 | 62 | 84 | 0.00 | 0.43 | 111.1 | 5.8 | 1019 |
| 08/21 23:00 | 63 | 82 | 0.00 | 0.43 | 123.0 | 6.1 | 1019 |
| 08/21 22:00 | 64 | 80 | 0.00 | 0.43 | 131.4 | 5.9 | 1019 |
| 08/21 21:00 | 65 | 77 | 0.00 | 0.43 | 134.7 | 6.0 | 1018 |
| 08/21 20:00 | 67 | 69 | 0.00 | 0.43 | 134.8 | 5.4 | 1018 |
| 08/21 19:00 | 68 | 73 | 0.00 | 0.43 | 136.2 | 5.5 | 1019 |
| 08/21 18:00 | 72 | 59 | 0.00 | 0.43 | 137.2 | 5.3 | 1018 |
| 08/21 17:00 | 77 | 48 | 0.00 | 0.43 | 130.3 | 4.6 | 1018 |
| 08/21 16:00 | 86 | 25 | 0.00 | 0.43 | 115.2 | 4.4 | 1018 |
| 08/21 15:00 | 86 | 25 | 0.00 | 0.43 | 121.7 | 3.7 | 1018 |
| 08/21 14:00 | 84 | 28 | 0.00 | 0.43 | 128.0 | 4.2 | 1019 |
| 08/21 13:00 | 84 | 30 | 0.00 | 0.43 | 131.9 | 4.6 | 1019 |
| 08/21 12:00 | 78 | 34 | 0.00 | 0.43 | 136.6 | 4.4 | 1020 |
| 08/21 11:00 | 76 | 37 | 0.00 | 0.43 | 139.5 | 4.9 | 1020 |
| 08/21 10:00 | 71 | 46 | 0.00 | 0.43 | 144.2 | 5.1 | 1019 |
| 08/21 09:00 | 65 | 59 | 0.00 | 0.43 | 141.9 | 5.7 | 1020 |
| 08/21 08:00 | 62 | 62 | 0.00 | 0.43 | 137.2 | 5.7 | 1020 |
| 08/21 07:00 | 61 | 60 | 0.00 | 0.43 | 138.5 | 5.9 | 1019 |
| 08/21 06:00 | 60 | 59 | 0.00 | 0.43 | 135.6 | 5.8 | 1019 |
| 08/21 05:00 | 61 | 59 | 0.00 | 0.43 | 133.4 | 6.0 | 1019 |
| 08/21 04:00 | 61 | 58 | 0.00 | 0.43 | 131.0 | 5.8 | 1019 |
| 08/21 03:00 | 60 | 57 | 0.00 | 0.43 | 128.8 | 5.9 | 1019 |
| 08/21 02:00 | 60 | 56 | 0.00 | 0.43 | 126.6 | 6.1 | 1019 |
| 08/21 01:00 | 60 | 59 | 0.00 | 0.43 | 117.8 | 6.2 | 1019 |
| 08/21 00:00 | 60 | 60 | 0.00 | 0.43 | 114.8 | 6.0 | 1019 |
| 08/20 23:00 | 61 | 62 | 0.00 | 0.43 | 117.5 | 5.9 | 1019 |
| 08/20 22:00 | 62 | 62 | 0.00 | 0.43 | 111.7 | 5.8 | 1019 |
| 08/20 21:00 | 64 | 61 | 0.00 | 0.43 | 113.3 | 5.9 | 1019 |
| 08/20 20:00 | 69 | 56 | 0.00 | 0.43 | 115.5 | 5.2 | 1018 |
| 08/20 19:00 | 75 | 43 | 0.00 | 0.43 | 113.3 | 5.3 | 1018 |
| 08/20 18:00 | 79 | 32 | 0.00 | 0.43 | 103.0 | 4.9 | 1018 |
| 08/20 17:00 | 80 | 31 | 0.00 | 0.43 | 113.6 | 5.1 | 1018 |
| 08/20 16:00 | 82 | 32 | 0.00 | 0.43 | 107.9 | 5.0 | 1018 |
| 08/20 15:00 | 81 | 32 | 0.00 | 0.43 | 106.1 | 4.1 | 1018 |
| 08/20 14:00 | 81 | 32 | 0.00 | 0.43 | 112.4 | 4.2 | 1018 |
| 08/20 13:00 | 78 | 36 | 0.00 | 0.43 | 121.5 | 4.2 | 1018 |
| 08/20 12:00 | 74 | 50 | 0.00 | 0.43 | 135.6 | 4.5 | 1018 |
| 08/20 11:00 | 67 | 67 | 0.00 | 0.43 | 144.4 | 5.7 | 1018 |
| 08/20 10:00 | 61 | 83 | 0.00 | 0.43 | 140.8 | 6.0 | 1018 |
| 08/20 09:00 | 56 | 81 | 0.00 | 0.43 | 89.0 | 6.5 | 1018 |
| 08/20 08:00 | 53 | 91 | 0.00 | 0.43 | 37.7 | 7.0 | 1018 |
| 08/20 07:00 | 52 | 91 | 0.00 | 0.43 | 41.4 | 6.6 | 1018 |
| 08/20 06:00 | 53 | 91 | 0.00 | 0.43 | 46.2 | 6.8 | 1018 |
| 08/20 05:00 | 53 | 90 | 0.00 | 0.43 | 43.4 | 6.7 | 1018 |
| 08/20 04:00 | 54 | 90 | 0.00 | 0.43 | 42.5 | 6.6 | 1018 |
| 08/20 03:00 | 54 | 89 | 0.00 | 0.43 | 33.2 | 6.6 | 1018 |
| 08/20 02:00 | 55 | 88 | 0.00 | 0.43 | 28.7 | 6.6 | 1018 |
| 08/20 01:00 | 55 | 88 | 0.00 | 0.43 | 28.5 | 6.4 | 1018 |
| 08/20 00:00 | 56 | 87 | 0.00 | 0.43 | 36.0 | 6.6 | 1018 |
| 08/19 23:00 | 57 | 85 | 0.00 | 0.43 | 60.2 | 6.2 | 1018 |
| 08/19 22:00 | 58 | 82 | 0.00 | 0.43 | 96.5 | 6.3 | 1018 |
| 08/19 21:00 | 61 | 76 | 0.00 | 0.43 | 116.4 | 6.2 | 1019 |
| 08/19 20:00 | 66 | 71 | 0.00 | 0.43 | 125.9 | 5.5 | 1018 |
| 08/19 19:00 | 70 | 60 | 0.00 | 0.43 | 125.3 | 5.5 | 1018 |
| 08/19 18:00 | 73 | 55 | 0.00 | 0.43 | 123.9 | 5.5 | 1018 |
| 08/19 17:00 | 74 | 50 | 0.00 | 0.43 | 135.9 | 5.4 | 1018 |
| 08/19 16:00 | 76 | 44 | 0.00 | 0.43 | 132.6 | 5.1 | 1018 |
| 08/19 15:00 | 76 | 45 | 0.00 | 0.43 | 133.3 | 4.6 | 1018 |
| 08/19 14:00 | 74 | 52 | 0.00 | 0.43 | 146.7 | 4.3 | 1019 |
| 08/19 13:00 | 71 | 57 | 0.00 | 0.43 | 149.3 | 4.5 | 1019 |
| 08/19 12:00 | 67 | 62 | 0.00 | 0.43 | 155.0 | 5.4 | 1019 |
| 08/19 11:00 | 62 | 77 | 0.00 | 0.43 | 154.1 | 5.9 | 1019 |
| 08/19 10:00 | 57 | 88 | 0.00 | 0.43 | 125.2 | 6.3 | 1019 |
| 08/19 09:00 | 55 | 93 | 0.00 | 0.43 | 24.3 | 6.9 | 1019 |
| 08/19 08:00 | 52 | 94 | 0.00 | 0.43 | 47.6 | 7.0 | 1019 |
| 08/19 07:00 | 51 | 93 | 0.00 | 0.43 | 48.9 | 7.0 | 1019 |
| 08/19 06:00 | 51 | 92 | 0.00 | 0.43 | 43.4 | 7.0 | 1019 |
| 08/19 05:00 | 52 | 92 | 0.00 | 0.43 | 42.4 | 6.7 | 1019 |
| 08/19 04:00 | 52 | 91 | 0.00 | 0.43 | 39.1 | 6.7 | 1019 |
| 08/19 03:00 | 53 | 91 | 0.00 | 0.43 | 30.4 | 6.6 | 1020 |
| 08/19 02:00 | 53 | 90 | 0.00 | 0.43 | 27.0 | 6.2 | 1020 |
| 08/19 01:00 | 54 | 89 | 0.00 | 0.43 | 23.6 | 6.1 | 1021 |
| 08/19 00:00 | 56 | 88 | 0.00 | 0.43 | 33.1 | 6.2 | 1021 |
| 08/18 23:00 | 57 | 86 | 0.00 | 0.43 | 67.6 | 6.1 | 1021 |
| 08/18 22:00 | 59 | 82 | 0.00 | 0.43 | 100.9 | 6.2 | 1021 |
| 08/18 21:00 | 61 | 78 | 0.00 | 0.43 | 121.5 | 5.7 | 1021 |
| 08/18 20:00 | 64 | 72 | 0.00 | 0.43 | 122.9 | 5.8 | 1020 |
| 08/18 19:00 | 67 | 65 | 0.00 | 0.43 | 119.9 | 5.3 | 1020 |
| 08/18 18:00 | 69 | 58 | 0.00 | 0.43 | 125.0 | 5.5 | 1020 |
| 08/18 17:00 | 70 | 59 | 0.00 | 0.43 | 141.6 | 5.5 | 1020 |
| 08/18 16:00 | 73 | 53 | 0.00 | 0.43 | 139.8 | 5.5 | 1021 |
| 08/18 15:00 | 73 | 55 | 0.00 | 0.43 | 142.6 | 5.1 | 1021 |
| 08/18 14:00 | 72 | 54 | 0.00 | 0.43 | 149.9 | 4.7 | 1021 |
| 08/18 13:00 | 71 | 57 | 0.00 | 0.43 | 140.3 | 4.9 | 1021 |
| 08/18 12:00 | 68 | 61 | 0.00 | 0.43 | 150.8 | 5.1 | 1021 |
| 08/18 11:00 | 63 | 71 | 0.00 | 0.43 | 151.9 | 5.5 | 1021 |
| 08/18 10:00 | 58 | 85 | 0.00 | 0.43 | 135.6 | 6.0 | 1021 |
| 08/18 09:00 | 56 | 93 | 0.00 | 0.43 | 90.5 | 6.2 | 1021 |
| 08/18 08:00 | 55 | 94 | 0.00 | 0.43 | 49.3 | 6.5 | 1021 |
| 08/18 07:00 | 54 | 94 | 0.00 | 0.43 | 32.9 | 6.5 | 1021 |
| 08/18 06:00 | 54 | 94 | 0.00 | 0.43 | 46.7 | 6.6 | 1021 |
| 08/18 05:00 | 54 | 93 | 0.00 | 0.43 | 47.1 | 6.8 | 1021 |
| 08/18 04:00 | 54 | 93 | 0.00 | 0.43 | 45.3 | 6.8 | 1021 |
| 08/18 03:00 | 54 | 93 | 0.00 | 0.43 | 44.2 | 6.6 | 1021 |
| 08/18 02:00 | 54 | 91 | 0.00 | 0.43 | 32.0 | 6.5 | 1021 |
| 08/18 01:00 | 55 | 91 | 0.00 | 0.43 | 28.7 | 6.1 | 1021 |
| 08/18 00:00 | 55 | 90 | 0.00 | 0.43 | 27.8 | 6.6 | 1021 |
| 08/17 23:00 | 55 | 89 | 0.00 | 0.43 | 33.5 | 6.2 | 1021 |
| 08/17 22:00 | 57 | 86 | 0.00 | 0.43 | 51.1 | 6.0 | 1021 |
| 08/17 21:00 | 59 | 82 | 0.00 | 0.43 | 93.4 | 6.0 | 1021 |
| 08/17 20:00 | 63 | 79 | 0.00 | 0.43 | 120.7 | 5.7 | 1020 |
| 08/17 19:00 | 67 | 68 | 0.00 | 0.43 | 124.4 | 5.8 | 1020 |
| 08/17 18:00 | 70 | 62 | 0.00 | 0.43 | 127.6 | 5.1 | 1020 |
| 08/17 17:00 | 72 | 51 | 0.00 | 0.43 | 137.4 | 5.2 | 1020 |
| 08/17 16:00 | 74 | 52 | 0.00 | 0.43 | 131.6 | 5.2 | 1020 |
| 08/17 15:00 | 73 | 59 | 0.00 | 0.43 | 142.6 | 4.9 | 1021 |
| 08/17 14:00 | 71 | 66 | 0.00 | 0.43 | 154.7 | 4.6 | 1021 |
| 08/17 13:00 | 68 | 73 | 0.00 | 0.43 | 151.3 | 4.9 | 1021 |
| 08/17 12:00 | 61 | 88 | 0.00 | 0.43 | 151.2 | 5.4 | 1021 |
| 08/17 11:00 | 56 | 95 | 0.00 | 0.43 | 141.6 | 6.0 | 1021 |
| 08/17 10:00 | 55 | 97 | 0.00 | 0.43 | 99.9 | 6.0 | 1022 |
| 08/17 09:00 | 53 | 97 | 0.00 | 0.43 | 51.5 | 6.5 | 1022 |
| 08/17 08:00 | 53 | 97 | 0.00 | 0.43 | 35.9 | 7.9 | 1022 |
| 08/17 07:00 | 53 | 97 | 0.00 | 0.43 | 48.0 | 7.3 | 1022 |
| 08/17 06:00 | 53 | 96 | 0.00 | 0.43 | 42.8 | 6.6 | 1022 |
| 08/17 05:00 | 53 | 96 | 0.00 | 0.43 | 42.0 | 7.0 | 1022 |
| 08/17 04:00 | 53 | 96 | 0.00 | 0.43 | 43.8 | 6.4 | 1022 |
| 08/17 03:00 | 54 | 96 | 0.00 | 0.43 | 35.0 | 6.7 | 1022 |
| 08/17 02:00 | 54 | 96 | 0.00 | 0.43 | 45.6 | 6.5 | 1022 |
| 08/17 01:00 | 55 | 95 | 0.00 | 0.43 | 49.5 | 6.2 | 1022 |
| 08/17 00:00 | 55 | 95 | 0.00 | 0.43 | 52.1 | 6.2 | 1022 |
| 08/16 23:00 | 56 | 94 | 0.00 | 0.43 | 47.6 | 5.9 | 1023 |
| 08/16 22:00 | 55 | 89 | 0.00 | 0.43 | 40.6 | 6.2 | 1022 |
| 08/16 21:00 | 57 | 89 | 0.00 | 0.43 | 54.4 | 6.1 | 1022 |
| 08/16 20:00 | 59 | 86 | 0.00 | 0.43 | 125.3 | 6.3 | 1022 |
| 08/16 19:00 | 61 | 83 | 0.00 | 0.43 | 135.0 | 5.5 | 1022 |
| 08/16 18:00 | 64 | 78 | 0.00 | 0.43 | 140.1 | 5.7 | 1022 |
| 08/16 17:00 | 65 | 75 | 0.00 | 0.43 | 156.5 | 5.5 | 1022 |
| 08/16 16:00 | 67 | 71 | 0.00 | 0.43 | 154.0 | 4.8 | 1022 |
| 08/16 15:00 | 67 | 70 | 0.00 | 0.43 | 157.6 | 5.0 | 1022 |
| 08/16 14:00 | 67 | 74 | 0.00 | 0.43 | 160.5 | 5.1 | 1022 |
| 08/16 13:00 | 64 | 81 | 0.00 | 0.43 | 150.4 | 5.3 | 1022 |
| 08/16 12:00 | 59 | 90 | 0.00 | 0.43 | 152.5 | 6.2 | 1023 |
| 08/16 11:00 | 58 | 93 | 0.00 | 0.43 | 146.0 | 6.1 | 1023 |
| 08/16 10:00 | 55 | 97 | 0.00 | 0.43 | 111.5 | 6.1 | 1023 |
| 08/16 09:00 | 54 | 97 | 0.00 | 0.43 | 39.0 | 6.6 | 1023 |
| 08/16 08:00 | 54 | 97 | 0.00 | 0.43 | 35.6 | 7.4 | 1023 |
| 08/16 07:00 | 54 | 96 | 0.00 | 0.43 | 44.0 | 6.8 | 1023 |
| 08/16 06:00 | 55 | 96 | 0.00 | 0.43 | 44.5 | 6.8 | 1023 |
| 08/16 05:00 | 55 | 96 | 0.00 | 0.43 | 40.7 | 6.2 | 1023 |
| 08/16 04:00 | 56 | 96 | 0.00 | 0.43 | 45.4 | 6.4 | 1022 |
| 08/16 03:00 | 57 | 95 | 0.00 | 0.43 | 47.2 | 6.3 | 1022 |
| 08/16 02:00 | 58 | 95 | 0.00 | 0.43 | 48.9 | 6.0 | 1022 |
| 08/16 01:00 | 58 | 94 | 0.00 | 0.43 | 56.6 | 6.1 | 1022 |
| 08/16 00:00 | 58 | 94 | 0.00 | 0.43 | 50.5 | 5.8 | 1022 |
| 08/15 23:00 | 59 | 93 | 0.00 | 0.43 | 56.1 | 6.0 | 1023 |
| 08/15 22:00 | 59 | 92 | 0.00 | 0.43 | 71.8 | 5.9 | 1022 |
| 08/15 21:00 | 60 | 91 | 0.00 | 0.43 | 88.7 | 6.4 | 1022 |
| 08/15 20:00 | 61 | 87 | 0.00 | 0.43 | 140.4 | 5.8 | 1022 |
| 08/15 19:00 | 62 | 85 | 0.00 | 0.43 | 152.3 | 5.8 | 1021 |
| 08/15 18:00 | 63 | 81 | 0.00 | 0.43 | 153.7 | 5.7 | 1021 |
| 08/15 17:00 | 65 | 77 | 0.00 | 0.43 | 155.4 | 5.5 | 1021 |
| 08/15 16:00 | 64 | 76 | 0.00 | 0.43 | 156.0 | 6.0 | 1021 |
| 08/15 15:00 | 65 | 74 | 0.00 | 0.43 | 156.7 | 5.3 | 1021 |
| 08/15 14:00 | 66 | 69 | 0.00 | 0.43 | 158.9 | 5.2 | 1021 |
| 08/15 13:00 | 69 | 65 | 0.00 | 0.43 | 158.3 | 4.9 | 1021 |
| 08/15 12:00 | 69 | 60 | 0.00 | 0.43 | 156.0 | 5.0 | 1021 |
| 08/15 11:00 | 66 | 56 | 0.00 | 0.43 | 155.4 | 5.5 | 1021 |
| 08/15 10:00 | 63 | 62 | 0.00 | 0.43 | 146.7 | 5.4 | 1021 |
| 08/15 09:00 | 58 | 77 | 0.00 | 0.43 | 134.7 | 6.1 | 1020 |
| 08/15 08:00 | 55 | 81 | 0.00 | 0.43 | 116.3 | 6.7 | 1020 |
| 08/15 07:00 | 54 | 78 | 0.00 | 0.43 | 112.5 | 6.7 | 1020 |
| 08/15 06:00 | 54 | 81 | 0.00 | 0.43 | 98.3 | 6.4 | 1020 |
| 08/15 05:00 | 54 | 82 | 0.00 | 0.43 | 89.6 | 6.3 | 1019 |
| 08/15 04:00 | 53 | 79 | 0.00 | 0.43 | 75.7 | 6.3 | 1019 |
| 08/15 03:00 | 53 | 84 | 0.00 | 0.43 | 41.5 | 6.6 | 1019 |
| 08/15 02:00 | 54 | 85 | 0.00 | 0.43 | 46.4 | 6.5 | 1019 |
| 08/15 01:00 | 55 | 83 | 0.00 | 0.43 | 67.8 | 6.3 | 1019 |
| 08/15 00:00 | 56 | 82 | 0.00 | 0.43 | 93.2 | 6.2 | 1019 |
| 08/14 23:00 | 57 | 79 | 0.00 | 0.43 | 120.5 | 6.2 | 1019 |
| 08/14 22:00 | 58 | 74 | 0.00 | 0.43 | 131.3 | 5.9 | 1019 |
| 08/14 21:00 | 60 | 71 | 0.00 | 0.43 | 131.0 | 6.0 | 1019 |
| 08/14 20:00 | 64 | 63 | 0.00 | 0.43 | 131.5 | 5.6 | 1018 |
| 08/14 19:00 | 67 | 55 | 0.00 | 0.43 | 135.7 | 5.5 | 1018 |
| 08/14 18:00 | 70 | 51 | 0.00 | 0.43 | 135.2 | 5.0 | 1018 |
| 08/14 17:00 | 71 | 43 | 0.02 | 0.43 | 141.2 | 5.4 | 1017 |
| 08/14 16:00 | 73 | 42 | 0.00 | 0.41 | 136.0 | 4.7 | 1017 |
| 08/14 15:00 | 73 | 42 | 0.00 | 0.41 | 137.3 | 5.0 | 1017 |
| 08/14 14:00 | 73 | 40 | 0.00 | 0.41 | 145.0 | 4.7 | 1017 |
| 08/14 13:00 | 70 | 53 | 0.00 | 0.41 | 149.6 | 4.8 | 1017 |
| 08/14 12:00 | 67 | 60 | 0.00 | 0.41 | 158.2 | 5.3 | 1017 |
| 08/14 11:00 | 64 | 65 | 0.00 | 0.41 | 153.6 | 5.8 | 1017 |
| 08/14 10:00 | 60 | 71 | 0.00 | 0.41 | 140.1 | 6.2 | 1017 |
| 08/14 09:00 | 56 | 83 | 0.00 | 0.41 | 105.2 | 6.4 | 1017 |
| 08/14 08:00 | 53 | 85 | 0.00 | 0.41 | 64.7 | 7.3 | 1017 |
| 08/14 07:00 | 51 | 85 | 0.00 | 0.41 | 37.9 | 7.2 | 1016 |
| 08/14 06:00 | 52 | 85 | 0.00 | 0.41 | 49.9 | 7.0 | 1016 |
| 08/14 05:00 | 52 | 83 | 0.00 | 0.41 | 67.6 | 7.4 | 1016 |
| 08/14 04:00 | 52 | 81 | 0.00 | 0.41 | 88.3 | 7.2 | 1015 |
| 08/14 03:00 | 53 | 82 | 0.00 | 0.41 | 62.8 | 7.2 | 1015 |
| 08/14 02:00 | 54 | 83 | 0.00 | 0.41 | 56.5 | 7.0 | 1015 |
| 08/14 01:00 | 54 | 84 | 0.00 | 0.41 | 47.7 | 6.8 | 1016 |
| 08/14 00:00 | 55 | 86 | 0.00 | 0.41 | 35.7 | 6.4 | 1016 |
| 08/13 23:00 | 55 | 83 | 0.00 | 0.41 | 55.7 | 6.6 | 1016 |
| 08/13 22:00 | 56 | 90 | 0.00 | 0.41 | 26.2 | 6.5 | 1016 |
| 08/13 21:00 | 57 | 93 | 0.00 | 0.41 | 28.8 | 6.7 | 1015 |
| 08/13 20:00 | 59 | 93 | 0.00 | 0.41 | 51.9 | 6.3 | 1015 |
| 08/13 19:00 | 60 | 93 | 0.00 | 0.41 | 129.6 | 6.6 | 1014 |
| 08/13 18:00 | 61 | 92 | 0.00 | 0.41 | 147.0 | 6.8 | 1014 |
| 08/13 17:00 | 59 | 92 | 0.10 | 0.41 | 151.7 | 7.2 | 1014 |
| 08/13 16:00 | 70 | 59 | 0.00 | 0.31 | 151.9 | 5.8 | 1014 |
| 08/13 15:00 | 73 | 43 | 0.00 | 0.31 | 149.8 | 4.8 | 1013 |
| 08/13 14:00 | 73 | 48 | 0.00 | 0.31 | 152.0 | 4.6 | 1014 |
| 08/13 13:00 | 67 | 65 | 0.00 | 0.31 | 156.8 | 4.8 | 1014 |
| 08/13 12:00 | 62 | 77 | 0.00 | 0.31 | 155.9 | 5.4 | 1014 |
| 08/13 11:00 | 62 | 76 | 0.00 | 0.31 | 157.1 | 5.5 | 1014 |
| 08/13 10:00 | 57 | 88 | 0.00 | 0.31 | 139.4 | 5.8 | 1015 |
| 08/13 09:00 | 54 | 93 | 0.00 | 0.31 | 106.9 | 6.0 | 1015 |
| 08/13 08:00 | 53 | 94 | 0.00 | 0.31 | 44.4 | 6.4 | 1015 |
| 08/13 07:00 | 51 | 94 | 0.00 | 0.31 | 25.2 | 6.8 | 1015 |
| 08/13 06:00 | 50 | 92 | 0.00 | 0.31 | 32.0 | 6.6 | 1015 |
| 08/13 05:00 | 50 | 93 | 0.00 | 0.31 | 52.1 | 6.7 | 1015 |
| 08/13 04:00 | 50 | 92 | 0.00 | 0.31 | 52.7 | 6.7 | 1015 |
| 08/13 03:00 | 50 | 91 | 0.00 | 0.31 | 53.2 | 6.5 | 1015 |
| 08/13 02:00 | 50 | 91 | 0.00 | 0.31 | 42.8 | 6.6 | 1015 |
| 08/13 01:00 | 51 | 90 | 0.00 | 0.31 | 43.7 | 6.5 | 1015 |
| 08/13 00:00 | 52 | 90 | 0.00 | 0.31 | 39.8 | 6.3 | 1016 |
| 08/12 23:00 | 52 | 88 | 0.00 | 0.31 | 53.8 | 6.3 | 1016 |
| 08/12 22:00 | 54 | 86 | 0.00 | 0.31 | 90.9 | 6.2 | 1016 |
| 08/12 21:00 | 57 | 83 | 0.00 | 0.31 | 135.3 | 6.1 | 1016 |
| 08/12 20:00 | 58 | 79 | 0.00 | 0.31 | 148.1 | 6.1 | 1016 |
| 08/12 19:00 | 59 | 75 | 0.00 | 0.31 | 145.0 | 6.1 | 1015 |
| 08/12 18:00 | 62 | 71 | 0.00 | 0.31 | 152.4 | 6.0 | 1016 |
| 08/12 17:00 | 62 | 70 | 0.00 | 0.31 | 154.9 | 5.8 | 1016 |
| 08/12 16:00 | 65 | 64 | 0.00 | 0.31 | 161.2 | 5.8 | 1016 |
| 08/12 15:00 | 63 | 68 | 0.00 | 0.31 | 160.5 | 5.5 | 1016 |
| 08/12 14:00 | 64 | 64 | 0.00 | 0.31 | 164.3 | 5.2 | 1017 |
| 08/12 13:00 | 62 | 67 | 0.00 | 0.31 | 155.1 | 5.7 | 1017 |
| 08/12 12:00 | 59 | 72 | 0.00 | 0.31 | 152.7 | 5.9 | 1017 |
| 08/12 11:00 | 58 | 78 | 0.00 | 0.31 | 145.3 | 5.8 | 1017 |
| 08/12 10:00 | 56 | 83 | 0.00 | 0.31 | 140.3 | 5.9 | 1018 |
| 08/12 09:00 | 53 | 91 | 0.00 | 0.31 | 99.8 | 6.2 | 1018 |
| 08/12 08:00 | 51 | 94 | 0.00 | 0.31 | 32.3 | 6.7 | 1018 |
| 08/12 07:00 | 48 | 93 | 0.00 | 0.31 | 36.8 | 7.0 | 1018 |
| 08/12 06:00 | 48 | 92 | 0.00 | 0.31 | 36.9 | 7.0 | 1018 |
| 08/12 05:00 | 48 | 92 | 0.00 | 0.31 | 36.9 | 6.8 | 1018 |
| 08/12 04:00 | 48 | 90 | 0.00 | 0.31 | 33.1 | 6.6 | 1018 |
| 08/12 03:00 | 49 | 89 | 0.00 | 0.31 | 32.2 | 6.6 | 1019 |
| 08/12 02:00 | 50 | 88 | 0.00 | 0.31 | 46.8 | 6.4 | 1019 |
| 08/12 01:00 | 51 | 86 | 0.00 | 0.31 | 68.2 | 6.5 | 1019 |
| 08/12 00:00 | 51 | 84 | 0.00 | 0.31 | 89.5 | 6.3 | 1019 |
| 08/11 23:00 | 52 | 80 | 0.00 | 0.31 | 123.6 | 6.3 | 1019 |
| 08/11 22:00 | 55 | 74 | 0.00 | 0.31 | 129.6 | 6.0 | 1020 |
| 08/11 21:00 | 58 | 68 | 0.00 | 0.31 | 137.6 | 6.0 | 1019 |
| 08/11 20:00 | 61 | 59 | 0.00 | 0.31 | 139.0 | 5.9 | 1019 |
| 08/11 19:00 | 64 | 56 | 0.00 | 0.31 | 138.0 | 5.5 | 1019 |
| 08/11 18:00 | 67 | 50 | 0.00 | 0.31 | 134.7 | 5.4 | 1019 |
| 08/11 17:00 | 67 | 52 | 0.00 | 0.31 | 155.0 | 5.8 | 1019 |
| 08/11 16:00 | 70 | 48 | 0.00 | 0.31 | 149.8 | 5.1 | 1019 |
| 08/11 15:00 | 72 | 44 | 0.00 | 0.31 | 149.7 | 5.4 | 1020 |
| 08/11 14:00 | 70 | 47 | 0.00 | 0.31 | 147.2 | 4.8 | 1020 |
| 08/11 13:00 | 67 | 51 | 0.00 | 0.31 | 146.6 | 4.5 | 1020 |
| 08/11 12:00 | 65 | 54 | 0.00 | 0.31 | 152.0 | 4.8 | 1020 |
| 08/11 11:00 | 61 | 63 | 0.00 | 0.31 | 150.6 | -7999.0 | 1020 |
| 08/11 10:00 | 56 | 77 | 0.00 | 0.31 | 129.7 | 5.9 | 1020 |
| 08/11 09:00 | 50 | 90 | 0.00 | 0.31 | 34.5 | 6.0 | 1020 |
| 08/11 08:00 | 47 | 93 | 0.00 | 0.31 | 31.7 | 7.0 | 1020 |
| 08/11 07:00 | 46 | 92 | 0.00 | 0.31 | 33.1 | 7.1 | 1020 |
| 08/11 06:00 | 46 | 91 | 0.00 | 0.31 | 28.6 | 6.7 | 1020 |
| 08/11 05:00 | 46 | 90 | 0.00 | 0.31 | 30.4 | 6.7 | 1020 |
| 08/11 04:00 | 47 | 88 | 0.00 | 0.31 | 37.0 | 6.7 | 1020 |
| 08/11 03:00 | 47 | 88 | 0.00 | 0.31 | 37.3 | 6.6 | 1020 |
| 08/11 02:00 | 48 | 88 | 0.00 | 0.31 | 46.2 | 6.8 | 1020 |
| 08/11 01:00 | 49 | 88 | 0.00 | 0.31 | 56.8 | 6.6 | 1020 |
| 08/11 00:00 | 51 | 86 | 0.00 | 0.31 | 78.5 | 6.2 | 1020 |
| 08/10 23:00 | 53 | 84 | 0.00 | 0.31 | 109.5 | 6.4 | 1021 |
| 08/10 22:00 | 55 | 81 | 0.00 | 0.31 | 128.5 | 6.2 | 1021 |
| 08/10 21:00 | 57 | 78 | 0.00 | 0.31 | 139.5 | 6.1 | 1020 |
| 08/10 20:00 | 61 | 68 | 0.00 | 0.31 | 142.1 | 5.7 | 1020 |
| 08/10 19:00 | 63 | 61 | 0.00 | 0.31 | 137.1 | 6.1 | 1020 |
| 08/10 18:00 | 65 | 56 | 0.00 | 0.31 | 147.5 | 5.8 | 1020 |
| 08/10 17:00 | 67 | 52 | 0.00 | 0.31 | 151.3 | 5.8 | 1020 |
| 08/10 16:00 | 70 | 46 | 0.00 | 0.31 | 149.8 | 4.9 | 1020 |
| 08/10 15:00 | 69 | 47 | 0.00 | 0.31 | 152.4 | 5.1 | 1020 |
| 08/10 14:00 | 69 | 45 | 0.00 | 0.31 | 145.9 | 4.6 | 1020 |
| 08/10 13:00 | 67 | 48 | 0.00 | 0.31 | 148.5 | 5.0 | 1019 |
| 08/10 12:00 | 64 | 54 | 0.00 | 0.31 | 156.2 | 5.5 | 1019 |
| 08/10 11:00 | 60 | 60 | 0.00 | 0.31 | 144.2 | 5.9 | 1019 |
| 08/10 10:00 | 54 | 78 | 0.00 | 0.31 | 135.9 | 5.7 | 1019 |
| 08/10 09:00 | 50 | 86 | 0.00 | 0.31 | 72.1 | 6.3 | 1019 |
| 08/10 08:00 | 46 | 90 | 0.00 | 0.31 | 29.4 | 7.0 | 1019 |
| 08/10 07:00 | 45 | 88 | 0.00 | 0.31 | 32.9 | 7.1 | 1019 |
| 08/10 06:00 | 45 | 86 | 0.00 | 0.31 | 43.4 | 7.1 | 1019 |
| 08/10 05:00 | 45 | 85 | 0.00 | 0.31 | 52.3 | 6.9 | 1019 |
| 08/10 04:00 | 46 | 86 | 0.00 | 0.31 | 41.7 | 6.9 | 1018 |
| 08/10 03:00 | 46 | 88 | 0.00 | 0.31 | 36.2 | 6.7 | 1018 |
| 08/10 02:00 | 47 | 89 | 0.00 | 0.31 | 35.4 | 6.7 | 1018 |
| 08/10 01:00 | 48 | 88 | 0.00 | 0.31 | 49.2 | 6.4 | 1019 |
| 08/10 00:00 | 50 | 87 | 0.00 | 0.31 | 68.8 | 6.5 | 1019 |
| 08/09 23:00 | 51 | 85 | 0.00 | 0.31 | 101.1 | 6.2 | 1019 |
| 08/09 22:00 | 53 | 82 | 0.00 | 0.31 | 127.7 | 6.2 | 1019 |
| 08/09 21:00 | 56 | 78 | 0.00 | 0.31 | 138.5 | 6.1 | 1019 |
| 08/09 20:00 | 59 | 73 | 0.00 | 0.31 | 141.6 | 6.0 | 1018 |
| 08/09 19:00 | 62 | 66 | 0.00 | 0.31 | 149.3 | 5.5 | 1018 |
| 08/09 18:00 | 65 | 60 | 0.00 | 0.31 | 152.1 | 5.1 | 1018 |
| 08/09 17:00 | 66 | 58 | 0.00 | 0.31 | 157.1 | 5.3 | 1018 |
| 08/09 16:00 | 69 | 51 | 0.00 | 0.31 | 149.1 | 4.6 | 1018 |
| 08/09 15:00 | 71 | 42 | 0.00 | 0.31 | 148.9 | 4.9 | 1018 |
| 08/09 14:00 | 69 | 46 | 0.00 | 0.31 | 149.0 | 4.9 | 1018 |
| 08/09 13:00 | 67 | 48 | 0.00 | 0.31 | 146.9 | 4.9 | 1019 |
| 08/09 12:00 | 64 | 55 | 0.00 | 0.31 | 153.7 | 5.1 | 1019 |
| 08/09 11:00 | 59 | 64 | 0.00 | 0.31 | 153.2 | 5.7 | 1019 |
| 08/09 10:00 | 55 | 68 | 0.00 | 0.31 | 139.8 | 5.9 | 1019 |
| 08/09 09:00 | 51 | 76 | 0.00 | 0.31 | 128.4 | 6.2 | 1019 |
| 08/09 08:00 | 48 | 78 | 0.00 | 0.31 | 117.4 | 6.4 | 1020 |
| 08/09 07:00 | 48 | 76 | 0.00 | 0.31 | 115.8 | 6.4 | 1020 |
| 08/09 06:00 | 48 | 75 | 0.00 | 0.31 | 116.0 | 6.4 | 1020 |
| 08/09 05:00 | 49 | 72 | 0.00 | 0.31 | 117.4 | 6.6 | 1020 |
| 08/09 04:00 | 49 | 70 | 0.00 | 0.31 | 118.3 | 6.2 | 1020 |
| 08/09 03:00 | 49 | 70 | 0.00 | 0.31 | 115.8 | 6.3 | 1020 |
| 08/09 02:00 | 50 | 70 | 0.00 | 0.31 | 122.0 | 6.3 | 1020 |
| 08/09 01:00 | 51 | 73 | 0.00 | 0.31 | 125.0 | 6.3 | 1020 |
| 08/09 00:00 | 52 | 72 | 0.00 | 0.31 | 125.8 | 6.0 | 1020 |
| 08/08 23:00 | 54 | 68 | 0.00 | 0.31 | 130.2 | 6.1 | 1021 |
| 08/08 22:00 | 58 | 62 | 0.00 | 0.31 | 135.0 | 5.7 | 1021 |
| 08/08 21:00 | 60 | 60 | 0.00 | 0.31 | 136.8 | 5.5 | 1021 |
| 08/08 20:00 | 65 | 47 | 0.00 | 0.31 | 136.6 | 5.2 | 1021 |
| 08/08 19:00 | 68 | 39 | 0.00 | 0.31 | 127.9 | 5.1 | 1021 |
| 08/08 18:00 | 71 | 35 | 0.00 | 0.31 | 126.8 | 5.2 | 1021 |
| 08/08 17:00 | 72 | 33 | 0.00 | 0.31 | 127.4 | 5.1 | 1021 |
| 08/08 16:00 | 74 | 32 | 0.00 | 0.31 | 123.5 | 4.5 | 1021 |
| 08/08 15:00 | 74 | 31 | 0.00 | 0.31 | 120.5 | 4.7 | 1021 |
| 08/08 14:00 | 71 | 35 | 0.00 | 0.31 | 139.2 | 4.8 | 1021 |
| 08/08 13:00 | 67 | 37 | 0.00 | 0.31 | 143.1 | 5.2 | 1022 |
| 08/08 12:00 | 69 | 42 | 0.00 | 0.31 | 140.4 | 4.0 | 1021 |
| 08/08 11:00 | 64 | 49 | 0.00 | 0.31 | 150.4 | 5.5 | 1021 |
| 08/08 10:00 | 60 | 52 | 0.00 | 0.31 | 147.0 | 5.1 | 1021 |
| 08/08 09:00 | 57 | 57 | 0.00 | 0.31 | 138.5 | 5.3 | 1021 |
| 08/08 08:00 | 52 | 73 | 0.00 | 0.31 | 130.2 | 6.3 | 1021 |
| 08/08 07:00 | 53 | 71 | 0.00 | 0.31 | 128.1 | 6.1 | 1021 |
| 08/08 06:00 | 52 | 74 | 0.00 | 0.31 | 127.2 | 6.0 | 1021 |
| 08/08 05:00 | 53 | 73 | 0.00 | 0.31 | 128.0 | 6.0 | 1020 |
| 08/08 04:00 | 54 | 76 | 0.00 | 0.31 | 124.9 | 5.9 | 1021 |
| 08/08 03:00 | 55 | 77 | 0.00 | 0.31 | 128.2 | 5.8 | 1021 |
| 08/08 02:00 | 55 | 76 | 0.00 | 0.31 | 129.4 | 5.9 | 1021 |
| 08/08 01:00 | 56 | 73 | 0.00 | 0.31 | 125.0 | 5.9 | 1021 |
| 08/08 00:00 | 57 | 69 | 0.00 | 0.31 | 130.0 | 6.0 | 1022 |
| 08/07 23:00 | 58 | 63 | 0.00 | 0.31 | 126.6 | 5.7 | 1022 |
| 08/07 22:00 | 62 | 59 | 0.00 | 0.31 | 135.2 | 5.3 | 1022 |
| 08/07 21:00 | 65 | 56 | 0.00 | 0.31 | 133.8 | 5.8 | 1021 |
| 08/07 20:00 | 68 | 50 | 0.00 | 0.31 | 132.7 | 4.9 | 1021 |
| 08/07 19:00 | 71 | 40 | 0.00 | 0.31 | 125.8 | 5.1 | 1021 |
| 08/07 18:00 | 74 | 30 | 0.00 | 0.31 | 116.2 | 5.0 | 1021 |
| 08/07 17:00 | 76 | 30 | 0.00 | 0.31 | 114.6 | 4.2 | 1021 |
| 08/07 16:00 | 78 | 29 | 0.00 | 0.31 | 104.5 | 3.4 | 1021 |
| 08/07 15:00 | 79 | 31 | 0.00 | 0.31 | 106.8 | 4.3 | 1021 |
| 08/07 14:00 | 79 | 33 | 0.00 | 0.31 | 122.0 | 4.1 | 1020 |
| 08/07 13:00 | 77 | 30 | 0.00 | 0.31 | 121.0 | 4.0 | 1020 |
| 08/07 12:00 | 75 | 32 | 0.00 | 0.31 | 130.4 | 4.0 | 1020 |
| 08/07 11:00 | 70 | 43 | 0.00 | 0.31 | 133.7 | 4.6 | 1020 |
| 08/07 10:00 | 62 | 60 | 0.00 | 0.31 | 145.6 | 4.5 | 1020 |
| 08/07 09:00 | 59 | 68 | 0.00 | 0.31 | 140.6 | 4.9 | 1020 |
| 08/07 08:00 | 56 | 71 | 0.00 | 0.31 | 128.4 | 5.9 | 1020 |
| 08/07 07:00 | 55 | 72 | 0.00 | 0.31 | 125.2 | 6.0 | 1020 |
| 08/07 06:00 | 54 | 73 | 0.00 | 0.31 | 121.7 | 6.0 | 1019 |
| 08/07 05:00 | 54 | 74 | 0.00 | 0.31 | 122.6 | 6.0 | 1019 |
| 08/07 04:00 | 55 | 75 | 0.00 | 0.31 | 121.4 | 5.9 | 1019 |
| 08/07 03:00 | 56 | 74 | 0.00 | 0.31 | 126.0 | 5.7 | 1019 |
| 08/07 02:00 | 56 | 74 | 0.00 | 0.31 | 127.0 | 6.0 | 1019 |
| 08/07 01:00 | 57 | 75 | 0.00 | 0.31 | 122.9 | 5.7 | 1019 |
| 08/07 00:00 | 57 | 75 | 0.00 | 0.31 | 124.2 | 5.6 | 1019 |
| 08/06 23:00 | 59 | 72 | 0.00 | 0.31 | 126.5 | 5.7 | 1019 |
| 08/06 22:00 | 61 | 69 | 0.00 | 0.31 | 121.4 | 5.5 | 1019 |
| 08/06 21:00 | 64 | 64 | 0.00 | 0.31 | 127.2 | 5.3 | 1019 |
| 08/06 20:00 | 70 | 54 | 0.00 | 0.31 | 129.7 | 4.8 | 1018 |
| 08/06 19:00 | 74 | 45 | 0.00 | 0.31 | 126.4 | 4.4 | 1018 |
| 08/06 18:00 | 79 | 33 | 0.00 | 0.31 | 112.6 | 4.6 | 1018 |
| 08/06 17:00 | 81 | 27 | 0.00 | 0.31 | 97.6 | 5.1 | 1018 |
| 08/06 16:00 | 82 | 25 | 0.00 | 0.31 | 80.7 | 7.7 | 1018 |
| 08/06 15:00 | 82 | 22 | 0.00 | 0.31 | 95.8 | 8.5 | 1018 |
| 08/06 14:00 | 81 | 24 | 0.00 | 0.31 | 103.5 | 6.0 | 1018 |
| 08/06 13:00 | 78 | 29 | 0.00 | 0.31 | 100.3 | 6.5 | 1018 |
| 08/06 12:00 | 75 | 33 | 0.00 | 0.31 | 116.7 | 4.4 | 1019 |
| 08/06 11:00 | 69 | 39 | 0.00 | 0.31 | 129.0 | 4.5 | 1018 |
| 08/06 10:00 | 64 | 41 | 0.00 | 0.31 | 137.5 | 4.2 | 1018 |
| 08/06 09:00 | 60 | 47 | 0.00 | 0.31 | 129.7 | 4.7 | 1018 |
| 08/06 08:00 | 56 | 55 | 0.00 | 0.31 | 130.5 | 5.0 | 1018 |
| 08/06 07:00 | 55 | 57 | 0.00 | 0.31 | 119.0 | 5.3 | 1018 |
| 08/06 06:00 | 55 | 56 | 0.00 | 0.31 | 126.4 | 5.3 | 1018 |
| 08/06 05:00 | 54 | 56 | 0.00 | 0.31 | 128.4 | 5.8 | 1018 |
| 08/06 04:00 | 55 | 55 | 0.00 | 0.31 | 127.0 | 5.0 | 1018 |
| 08/06 03:00 | 55 | 57 | 0.00 | 0.31 | 125.1 | 4.9 | 1018 |
| 08/06 02:00 | 55 | 59 | 0.00 | 0.31 | 125.0 | 4.9 | 1018 |
| 08/06 01:00 | 56 | 61 | 0.00 | 0.31 | 128.0 | 5.2 | 1018 |
| 08/06 00:00 | 56 | 64 | 0.00 | 0.31 | 125.7 | 5.3 | 1018 |
| 08/05 23:00 | 58 | 67 | 0.00 | 0.31 | 126.6 | 5.1 | 1018 |
| 08/05 22:00 | 59 | 62 | 0.00 | 0.31 | 122.8 | 6.0 | 1018 |
| 08/05 21:00 | 63 | 53 | 0.00 | 0.31 | 121.2 | 4.8 | 1017 |
| 08/05 20:00 | 69 | 51 | 0.00 | 0.31 | 131.3 | 4.8 | 1017 |
| 08/05 19:00 | 74 | 40 | 0.00 | 0.31 | 124.9 | 4.1 | 1017 |
| 08/05 18:00 | 78 | 35 | 0.00 | 0.31 | 114.5 | 4.3 | 1017 |
| 08/05 17:00 | 80 | 29 | 0.00 | 0.31 | 102.3 | 4.0 | 1017 |
| 08/05 16:00 | 81 | 25 | 0.00 | 0.31 | 87.4 | 3.5 | 1017 |
| 08/05 15:00 | 81 | 26 | 0.00 | 0.31 | 93.0 | 3.3 | 1017 |
| 08/05 14:00 | 80 | 26 | 0.00 | 0.31 | 103.0 | 3.3 | 1017 |
| 08/05 13:00 | 78 | 28 | 0.00 | 0.31 | 115.1 | 3.7 | 1017 |
| 08/05 12:00 | 74 | 37 | 0.00 | 0.31 | 140.7 | 4.3 | 1018 |
| 08/05 11:00 | 70 | 46 | 0.00 | 0.31 | 150.0 | 4.4 | 1018 |
| 08/05 10:00 | 66 | 50 | 0.00 | 0.31 | 147.9 | 4.4 | 1018 |
| 08/05 09:00 | 60 | 59 | 0.00 | 0.31 | 141.0 | 4.8 | 1018 |
| 08/05 08:00 | 55 | 70 | 0.00 | 0.31 | 130.1 | 5.1 | 1018 |
| 08/05 07:00 | 54 | 68 | 0.00 | 0.31 | 129.7 | 5.3 | 1018 |
| 08/05 06:00 | 54 | 65 | 0.00 | 0.31 | 130.4 | 5.3 | 1018 |
| 08/05 05:00 | 54 | 67 | 0.00 | 0.31 | 129.1 | 5.2 | 1017 |
| 08/05 04:00 | 55 | 67 | 0.00 | 0.31 | 131.8 | 5.2 | 1018 |
| 08/05 03:00 | 55 | 67 | 0.00 | 0.31 | 135.6 | 5.2 | 1018 |
| 08/05 02:00 | 56 | 66 | 0.00 | 0.31 | 132.5 | 5.3 | 1018 |
| 08/05 01:00 | 56 | 65 | 0.00 | 0.31 | 131.9 | 5.1 | 1018 |
| 08/05 00:00 | 57 | 67 | 0.00 | 0.31 | 131.3 | 5.2 | 1018 |
| 08/04 23:00 | 57 | 67 | 0.00 | 0.31 | 131.1 | 5.1 | 1018 |
| 08/04 22:00 | 58 | 64 | 0.00 | 0.31 | 130.0 | 4.8 | 1018 |
| 08/04 21:00 | 60 | 62 | 0.00 | 0.31 | 131.0 | 4.9 | 1018 |
| 08/04 20:00 | 66 | 57 | 0.00 | 0.31 | 136.1 | 4.8 | 1018 |
| 08/04 19:00 | 70 | 52 | 0.00 | 0.31 | 139.1 | 4.4 | 1018 |
| 08/04 18:00 | 74 | 35 | 0.00 | 0.31 | 125.3 | 4.6 | 1018 |
| 08/04 17:00 | 75 | 28 | 0.00 | 0.31 | 123.2 | 4.4 | 1018 |
| 08/04 16:00 | 77 | 26 | 0.00 | 0.31 | 112.6 | 3.9 | 1019 |
| 08/04 15:00 | 77 | 26 | 0.00 | 0.31 | 116.4 | 4.0 | 1019 |
| 08/04 14:00 | 74 | 26 | 0.00 | 0.31 | 123.9 | 4.1 | 1019 |
| 08/04 13:00 | 73 | 29 | 0.00 | 0.31 | 131.2 | 4.1 | 1019 |
| 08/04 12:00 | 70 | 34 | 0.00 | 0.31 | 144.2 | 4.4 | 1020 |
| 08/04 11:00 | 66 | 39 | 0.00 | 0.31 | 147.0 | 4.7 | 1020 |
| 08/04 10:00 | 61 | 49 | 0.00 | 0.31 | 146.6 | 4.8 | 1020 |
| 08/04 09:00 | 55 | 63 | 0.00 | 0.31 | 135.4 | 5.1 | 1020 |
| 08/04 08:00 | 51 | 73 | 0.00 | 0.31 | 127.4 | 5.5 | 1020 |
| 08/04 07:00 | 49 | 73 | 0.00 | 0.31 | 120.4 | 5.6 | 1020 |
| 08/04 06:00 | 49 | 72 | 0.00 | 0.31 | 114.8 | 5.7 | 1020 |
| 08/04 05:00 | 49 | 74 | 0.00 | 0.31 | 120.5 | 5.5 | 1020 |
| 08/04 04:00 | 49 | 76 | 0.00 | 0.31 | 118.7 | 5.7 | 1020 |
| 08/04 03:00 | 50 | 78 | 0.00 | 0.31 | 119.0 | 5.7 | 1020 |
| 08/04 02:00 | 50 | 78 | 0.00 | 0.31 | 122.7 | 5.5 | 1020 |
| 08/04 01:00 | 50 | 77 | 0.00 | 0.31 | 122.2 | 5.6 | 1021 |
| 08/04 00:00 | 51 | 76 | 0.00 | 0.31 | 131.4 | 5.6 | 1021 |
| 08/03 23:00 | 51 | 75 | 0.00 | 0.31 | 130.7 | 5.5 | 1021 |
| 08/03 22:00 | 52 | 76 | 0.00 | 0.31 | 129.6 | 5.5 | 1021 |
| 08/03 21:00 | 54 | 76 | 0.00 | 0.31 | 133.6 | 5.4 | 1021 |
| 08/03 20:00 | 58 | 74 | 0.00 | 0.31 | 143.3 | -7999.0 | 1021 |
| 08/03 19:00 | 60 | 69 | 0.00 | 0.31 | 151.4 | 4.9 | 1021 |
| 08/03 18:00 | 64 | 59 | 0.00 | 0.31 | 155.4 | 4.9 | 1021 |
| 08/03 17:00 | 64 | 56 | 0.00 | 0.31 | 155.8 | 4.6 | 1021 |
| 08/03 16:00 | 65 | 52 | 0.00 | 0.31 | 156.8 | 4.4 | 1022 |
| 08/03 15:00 | 63 | 64 | 0.00 | 0.31 | 164.4 | 4.7 | 1022 |
| 08/03 14:00 | 62 | 70 | 0.00 | 0.31 | 163.6 | 4.6 | 1022 |
| 08/03 13:00 | 60 | 72 | 0.00 | 0.31 | 154.0 | 4.7 | 1022 |
| 08/03 12:00 | 57 | 81 | 0.00 | 0.31 | 157.5 | 4.7 | 1023 |
| 08/03 11:00 | 53 | 95 | 0.00 | 0.31 | 152.3 | 5.7 | 1023 |
| 08/03 10:00 | 49 | 96 | 0.00 | 0.31 | 119.7 | 5.7 | 1023 |
| 08/03 09:00 | 46 | 96 | 0.00 | 0.31 | 30.0 | 6.0 | 1023 |
| 08/03 08:00 | 42 | 95 | 0.00 | 0.31 | 38.7 | 6.5 | 1023 |
| 08/03 07:00 | 40 | 94 | 0.00 | 0.31 | 39.4 | 6.8 | 1023 |
| 08/03 06:00 | 40 | 94 | 0.00 | 0.31 | 42.2 | 6.6 | 1023 |
| 08/03 05:00 | 41 | 94 | 0.00 | 0.31 | 44.4 | 6.5 | 1023 |
| 08/03 04:00 | 41 | 94 | 0.00 | 0.31 | 43.3 | 6.3 | 1023 |
| 08/03 03:00 | 42 | 94 | 0.00 | 0.31 | 32.6 | 6.2 | 1023 |
| 08/03 02:00 | 43 | 94 | 0.00 | 0.31 | 25.9 | 6.1 | 1023 |
| 08/03 01:00 | 43 | 95 | 0.00 | 0.31 | 30.2 | 6.0 | 1023 |
| 08/03 00:00 | 43 | 94 | 0.00 | 0.31 | 30.1 | 6.1 | 1023 |
| 08/02 23:00 | 45 | 94 | 0.00 | 0.31 | 29.6 | 5.7 | 1023 |
| 08/02 22:00 | 46 | 95 | 0.00 | 0.31 | 33.3 | 5.7 | 1023 |
| 08/02 21:00 | 47 | 95 | 0.00 | 0.31 | 43.3 | 5.7 | 1022 |
| 08/02 20:00 | 48 | 94 | 0.00 | 0.31 | 77.3 | 5.8 | 1022 |
| 08/02 19:00 | 48 | 93 | 0.00 | 0.31 | 121.4 | 5.9 | 1022 |
| 08/02 18:00 | 47 | 92 | 0.00 | 0.31 | 133.3 | 5.9 | 1022 |
| 08/02 17:00 | 49 | 90 | 0.00 | 0.31 | 143.3 | 6.0 | 1022 |
| 08/02 16:00 | 48 | 92 | 0.01 | 0.31 | 126.9 | 6.3 | 1022 |
| 08/02 15:00 | 49 | 91 | 0.00 | 0.30 | 145.5 | 6.0 | 1022 |
| 08/02 14:00 | 49 | 95 | 0.01 | 0.30 | 124.1 | 6.3 | 1022 |
| 08/02 13:00 | 47 | 93 | 0.04 | 0.29 | 117.7 | 6.2 | 1022 |
| 08/02 12:00 | 49 | 93 | 0.00 | 0.25 | 139.0 | 4.9 | 1021 |
| 08/02 11:00 | 48 | 95 | 0.00 | 0.25 | 130.4 | 5.7 | 1021 |
| 08/02 10:00 | 46 | 96 | 0.01 | 0.25 | 109.0 | 6.2 | 1022 |
| 08/02 09:00 | 46 | 97 | 0.01 | 0.24 | 91.6 | 6.3 | 1021 |
| 08/02 08:00 | 45 | 97 | 0.00 | 0.23 | 88.2 | 6.3 | 1022 |
| 08/02 07:00 | 45 | 96 | 0.00 | 0.23 | 85.3 | 6.6 | 1021 |
| 08/02 06:00 | 45 | 96 | 0.01 | 0.23 | 89.0 | 6.6 | 1021 |
| 08/02 05:00 | 45 | 95 | 0.05 | 0.22 | 92.7 | 6.6 | 1021 |
| 08/02 04:00 | 46 | 95 | 0.01 | 0.17 | 95.5 | 6.3 | 1021 |
| 08/02 03:00 | 46 | 95 | 0.05 | 0.16 | 95.9 | 6.6 | 1021 |
| 08/02 02:00 | 46 | 94 | 0.07 | 0.11 | 92.8 | 6.6 | 1021 |
| 08/02 01:00 | 47 | 90 | 0.04 | 0.04 | 107.7 | 6.6 | 1021 |
| 08/02 00:00 | 49 | 81 | 0.00 | 0.00 | 133.7 | 5.6 | 1021 |
| 08/01 23:00 | 49 | 80 | 0.00 | 0.00 | 138.1 | 5.3 | 1021 |
| 08/01 22:00 | 50 | 77 | 0.00 | 0.00 | 133.7 | 5.3 | 1021 |
| 08/01 21:00 | 50 | 75 | 0.00 | 0.00 | 136.5 | 5.3 | 1021 |
| 08/01 20:00 | 51 | 73 | 0.00 | 0.00 | 132.9 | 5.1 | 1021 |
| 08/01 19:00 | 52 | 69 | 0.00 | 0.00 | 140.0 | 5.7 | 1021 |

